Time;durP1;ratioP1;P1;durP2;ratioP2;P2;SDS_P1;SDS_P2;PMS_P1;PMS_P2;Temp;Humidity;BMP_temperature;BMP_pressure;BME280_temperature;BME280_humidity;BME280_pressure;Samples;Min_cycle;Max_cycle;Signal;HPM_P1;HPM_P2
2022/03/31 00:00:37;;;;;;;;;;;;;;;;;;5034274;28;19912;-60
2022/03/31 00:03:03;;;;;;;;;;;;;;;;;;5034014;28;20031;-60
2022/03/31 00:05:29;;;;;;;;;;;;;;;;;;5034216;28;19951;-60
2022/03/31 00:07:55;;;;;;;;;;;;;;;;;;5034228;28;19912;-50
2022/03/31 00:10:21;;;;;;;;;;;;;;;;;;5034027;28;19917;-48
2022/03/31 00:12:46;;;;;;;;;;;;;;;;;;5034010;28;19950;-47
2022/03/31 00:15:12;;;;;;;;;;;;;;;;;;5034014;28;20279;-47
2022/03/31 00:17:38;;;;;;;;;;;;;;;;;;5034192;28;19988;-46
2022/03/31 00:20:04;;;;;;;;;;;;;;;;;;5033897;28;19951;-47
2022/03/31 00:22:30;;;;;;;;;;;;;;;;;;5033828;28;19905;-47
2022/03/31 00:24:56;;;;;;;;;;;;;;;;;;5033801;28;19911;-47
2022/03/31 00:27:22;;;;;;;;;;;;;;;;;;5033790;28;19951;-49
2022/03/31 00:29:48;;;;;;;;;;;;;;;;;;5033626;28;19964;-46
2022/03/31 00:32:13;;;;;;;;;;;;;;;;;;5033661;28;20260;-46
2022/03/31 00:34:39;;;;;;;;;;;;;;;;;;5033636;28;19905;-47
2022/03/31 00:37:05;;;;;;;;;;;;;;;;;;5033521;28;20367;-47
2022/03/31 00:39:34;;;;;;;;;;;;;;;;;;5033578;28;19970;-46
2022/03/31 00:42:00;;;;;;;;;;;;;;;;;;5033765;28;19905;-46
2022/03/31 00:44:26;;;;;;;;;;;;;;;;;;5033585;28;20487;-48
2022/03/31 00:46:52;;;;;;;;;;;;;;;;;;5033456;28;19905;-48
2022/03/31 00:49:19;;;;;;;;;;;;;;;;;;5033563;28;19905;-50
2022/03/31 00:51:45;;;;;;;;;;;;;;;;;;5032835;28;19916;-46
2022/03/31 00:54:11;;;;;;;;;;;;;;;;;;5033281;28;19936;-48
2022/03/31 00:56:37;;;;;;;;;;;;;;;;;;5033290;28;19905;-47
2022/03/31 00:59:03;;;;;;;;;;;;;;;;;;5033193;28;19908;-47
2022/03/31 01:01:29;;;;;;;;;;;;;;;;;;5033189;28;20372;-48
2022/03/31 01:03:55;;;;;;;;;;;;;;;;;;5033070;28;19928;-48
2022/03/31 01:06:22;;;;;;;;;;;;;;;;;;5033043;28;19963;-47
2022/03/31 01:08:48;;;;;;;;;;;;;;;;;;5033375;28;20287;-47
2022/03/31 01:11:14;;;;;;;;;;;;;;;;;;5032893;28;19936;-47
2022/03/31 01:13:40;;;;;;;;;;;;;;;;;;5032998;28;19999;-48
2022/03/31 01:16:06;;;;;;;;;;;;;;;;;;5032877;28;19959;-47
2022/03/31 01:18:32;;;;;;;;;;;;;;;;;;5032959;28;19912;-47
2022/03/31 01:20:58;;;;;;;;;;;;;;;;;;5032965;28;19905;-47
2022/03/31 01:23:24;;;;;;;;;;;;;;;;;;5032837;28;20405;-47
2022/03/31 01:25:50;;;;;;;;;;;;;;;;;;5032847;28;19909;-46
2022/03/31 01:28:16;;;;;;;;;;;;;;;;;;5032734;28;19920;-49
2022/03/31 01:30:42;;;;;;;;;;;;;;;;;;5032654;28;19920;-47
2022/03/31 01:33:08;;;;;;;;;;;;;;;;;;5032653;28;19995;-48
2022/03/31 01:35:33;;;;;;;;;;;;;;;;;;5032702;28;19944;-47
2022/03/31 01:37:59;;;;;;;;;;;;;;;;;;5032686;28;19909;-48
2022/03/31 01:40:26;;;;;;;;;;;;;;;;;;5032700;28;19909;-48
2022/03/31 01:42:51;;;;;;;;;;;;;;;;;;5032661;28;19905;-47
2022/03/31 01:45:18;;;;;;;;;;;;;;;;;;5032545;28;19912;-47
2022/03/31 01:47:44;;;;;;;;;;;;;;;;;;5032589;28;19996;-48
2022/03/31 01:50:10;;;;;;;;;;;;;;;;;;5032759;28;19995;-48
2022/03/31 01:52:36;;;;;;;;;;;;;;;;;;5032560;28;19941;-47
2022/03/31 01:55:02;;;;;;;;;;;;;;;;;;5032499;28;19948;-47
2022/03/31 01:57:28;;;;;;;;;;;;;;;;;;5032469;28;19954;-47
2022/03/31 01:59:54;;;;;;;;;;;;;;;;;;5032463;28;19978;-47
2022/03/31 02:02:20;;;;;;;;;;;;;;;;;;5032164;28;19909;-47
2022/03/31 02:04:47;;;;;;;;;;;;;;;;;;5034902;28;20283;-47
2022/03/31 02:07:13;;;;;;;;;;;;;;;;;;5036378;28;19912;-47
2022/03/31 02:09:39;;;;;;;;;;;;;;;;;;5036261;28;19940;-47
2022/03/31 02:12:05;;;;;;;;;;;;;;;;;;5036324;28;19963;-47
2022/03/31 02:14:32;;;;;;;;;;;;;;;;;;5036244;28;19909;-47
2022/03/31 02:16:58;;;;;;;;;;;;;;;;;;5036370;28;20327;-46
2022/03/31 02:19:25;;;;;;;;;;;;;;;;;;5036105;28;19905;-47
2022/03/31 02:21:50;;;;;;;;;;;;;;;;;;5036156;28;19911;-48
2022/03/31 02:24:17;;;;;;;;;;;;;;;;;;5036089;28;19995;-47
2022/03/31 02:26:43;;;;;;;;;;;;;;;;;;5036289;28;19905;-47
2022/03/31 02:29:09;;;;;;;;;;;;;;;;;;5036036;28;20463;-47
2022/03/31 02:31:36;;;;;;;;;;;;;;;;;;5035815;28;19920;-47
2022/03/31 02:34:02;;;;;;;;;;;;;;;;;;5036201;28;19984;-48
2022/03/31 02:36:27;;;;;;;;;;;;;;;;;;5036091;28;20355;-47
2022/03/31 02:38:53;;;;;;;;;;;;;;;;;;5035771;28;19905;-48
2022/03/31 02:41:19;;;;;;;;;;;;;;;;;;5035754;28;19905;-47
2022/03/31 02:43:45;;;;;;;;;;;;;;;;;;5035607;28;19905;-47
2022/03/31 02:46:11;;;;;;;;;;;;;;;;;;5035661;28;20103;-47
2022/03/31 02:48:37;;;;;;;;;;;;;;;;;;5035581;28;19912;-47
2022/03/31 02:51:03;;;;;;;;;;;;;;;;;;5035569;28;19925;-47
2022/03/31 02:56:13;;;;;;;;;;;;;;;;;;5035611;28;20008;-60
2022/03/31 02:58:39;;;;;;;;;;;;;;;;;;5035478;28;19956;-59
2022/03/31 03:01:05;;;;;;;;;;;;;;;;;;5035698;28;19905;-60
2022/03/31 03:03:32;;;;;;;;;;;;;;;;;;5035192;28;19991;-60
2022/03/31 03:05:58;;;;;;;;;;;;;;;;;;5035309;28;20379;-60
2022/03/31 03:08:26;;;;;;;;;;;;;;;;;;5035264;28;19911;-60
2022/03/31 03:10:52;;;;;;;;;;;;;;;;;;5035214;28;19913;-60
2022/03/31 03:13:18;;;;;;;;;;;;;;;;;;5035248;28;19912;-59
2022/03/31 03:15:44;;;;;;;;;;;;;;;;;;5034787;28;19905;-60
2022/03/31 03:18:10;;;;;;;;;;;;;;;;;;5035371;28;20315;-59
2022/03/31 03:20:36;;;;;;;;;;;;;;;;;;5034986;28;19912;-59
2022/03/31 03:23:02;;;;;;;;;;;;;;;;;;5034915;28;19905;-60
2022/03/31 03:25:28;;;;;;;;;;;;;;;;;;5035189;28;19952;-59
2022/03/31 03:27:54;;;;;;;;;;;;;;;;;;5034859;28;19905;-60
2022/03/31 03:30:20;;;;;;;;;;;;;;;;;;5034853;28;19920;-60
2022/03/31 03:32:46;;;;;;;;;;;;;;;;;;5034901;28;19927;-60
2022/03/31 03:35:12;;;;;;;;;;;;;;;;;;5034790;28;20363;-59
2022/03/31 03:37:38;;;;;;;;;;;;;;;;;;5034655;28;19992;-60
2022/03/31 03:40:04;;;;;;;;;;;;;;;;;;5034659;28;19924;-60
2022/03/31 03:42:30;;;;;;;;;;;;;;;;;;5034894;28;19905;-60
2022/03/31 03:44:56;;;;;;;;;;;;;;;;;;5034545;28;19967;-60
2022/03/31 03:47:22;;;;;;;;;;;;;;;;;;5034524;28;19905;-60
2022/03/31 03:49:48;;;;;;;;;;;;;;;;;;5034775;28;19932;-60
2022/03/31 03:52:14;;;;;;;;;;;;;;;;;;5034524;28;19905;-60
2022/03/31 03:54:40;;;;;;;;;;;;;;;;;;5034660;28;19925;-60
2022/03/31 03:57:06;;;;;;;;;;;;;;;;;;5034300;28;20360;-60
2022/03/31 03:59:32;;;;;;;;;;;;;;;;;;5034371;28;19905;-60
2022/03/31 04:01:59;;;;;;;;;;;;;;;;;;5034249;28;19905;-59
2022/03/31 04:04:25;;;;;;;;;;;;;;;;;;5034254;28;19924;-60
2022/03/31 04:06:51;;;;;;;;;;;;;;;;;;5034158;28;19931;-60
2022/03/31 04:09:17;;;;;;;;;;;;;;;;;;5034053;28;19964;-60
2022/03/31 04:11:43;;;;;;;;;;;;;;;;;;5033908;28;19952;-60
2022/03/31 04:14:09;;;;;;;;;;;;;;;;;;5033965;28;19912;-59
2022/03/31 04:16:34;;;;;;;;;;;;;;;;;;5033986;28;19909;-60
2022/03/31 04:19:00;;;;;;;;;;;;;;;;;;5033933;28;19995;-60
2022/03/31 04:21:26;;;;;;;;;;;;;;;;;;5033892;28;20381;-60
2022/03/31 04:23:52;;;;;;;;;;;;;;;;;;5033825;28;20023;-60
2022/03/31 04:26:18;;;;;;;;;;;;;;;;;;5033415;28;19913;-60
2022/03/31 04:28:44;;;;;;;;;;;;;;;;;;5033586;28;20375;-60
2022/03/31 04:31:10;;;;;;;;;;;;;;;;;;5033609;28;19913;-60
2022/03/31 04:33:35;;;;;;;;;;;;;;;;;;5033633;28;19905;-60
2022/03/31 04:36:01;;;;;;;;;;;;;;;;;;5033484;28;19928;-60
2022/03/31 04:38:27;;;;;;;;;;;;;;;;;;5033805;28;19999;-59
2022/03/31 04:40:53;;;;;;;;;;;;;;;;;;5033455;28;19913;-60
2022/03/31 04:43:19;;;;;;;;;;;;;;;;;;5033796;28;19948;-60
2022/03/31 04:45:45;;;;;;;;;;;;;;;;;;5033474;28;19905;-60
2022/03/31 04:48:11;;;;;;;;;;;;;;;;;;5033397;28;19960;-60
2022/03/31 04:50:37;;;;;;;;;;;;;;;;;;5033254;28;19928;-59
2022/03/31 04:53:02;;;;;;;;;;;;;;;;;;5033280;28;19905;-60
2022/03/31 04:55:29;;;;;;;;;;;;;;;;;;5033296;28;19911;-60
2022/03/31 04:57:55;;;;;;;;;;;;;;;;;;5033595;28;19995;-60
2022/03/31 05:00:21;;;;;;;;;;;;;;;;;;5033208;28;19956;-60
2022/03/31 05:02:47;;;;;;;;;;;;;;;;;;5033069;28;19924;-60
2022/03/31 05:05:13;;;;;;;;;;;;;;;;;;5033115;28;19973;-60
2022/03/31 05:07:38;;;;;;;;;;;;;;;;;;5033371;28;19905;-60
2022/03/31 05:10:04;;;;;;;;;;;;;;;;;;5032919;28;20458;-60
2022/03/31 05:12:30;;;;;;;;;;;;;;;;;;5033275;28;19959;-60
2022/03/31 05:14:56;;;;;;;;;;;;;;;;;;5033279;28;20004;-60
2022/03/31 05:17:22;;;;;;;;;;;;;;;;;;5033200;28;19920;-60
2022/03/31 05:19:48;;;;;;;;;;;;;;;;;;5032898;28;19905;-60
2022/03/31 05:22:14;;;;;;;;;;;;;;;;;;5032849;28;19905;-60
2022/03/31 05:24:40;;;;;;;;;;;;;;;;;;5032803;28;19904;-60
2022/03/31 05:27:06;;;;;;;;;;;;;;;;;;5032810;28;19951;-59
2022/03/31 05:29:32;;;;;;;;;;;;;;;;;;5032669;28;19905;-60
2022/03/31 05:31:59;;;;;;;;;;;;;;;;;;5032579;28;19916;-60
2022/03/31 05:34:25;;;;;;;;;;;;;;;;;;5032461;28;20482;-59
2022/03/31 05:36:51;;;;;;;;;;;;;;;;;;5032528;28;19909;-59
2022/03/31 05:39:17;;;;;;;;;;;;;;;;;;5032400;28;19905;-59
2022/03/31 05:41:43;;;;;;;;;;;;;;;;;;5032584;28;19967;-59
2022/03/31 05:44:09;;;;;;;;;;;;;;;;;;5032504;28;19909;-59
2022/03/31 05:46:35;;;;;;;;;;;;;;;;;;5032464;28;19911;-60
2022/03/31 05:49:01;;;;;;;;;;;;;;;;;;5032406;28;20032;-59
2022/03/31 05:51:26;;;;;;;;;;;;;;;;;;5032298;28;19967;-59
2022/03/31 05:53:52;;;;;;;;;;;;;;;;;;5032331;28;19911;-59
2022/03/31 05:56:18;;;;;;;;;;;;;;;;;;5032591;28;19905;-58
2022/03/31 05:58:45;;;;;;;;;;;;;;;;;;5032749;28;20470;-58
2022/03/31 06:01:11;;;;;;;;;;;;;;;;;;5031023;28;19924;-58
2022/03/31 06:03:37;;;;;;;;;;;;;;;;;;5032186;28;20368;-59
2022/03/31 06:06:02;;;;;;;;;;;;;;;;;;5032303;28;19905;-59
2022/03/31 06:08:29;;;;;;;;;;;;;;;;;;5032249;28;19905;-59
2022/03/31 06:10:55;;;;;;;;;;;;;;;;;;5032419;28;19913;-59
2022/03/31 06:13:21;;;;;;;;;;;;;;;;;;5032132;28;19909;-59
2022/03/31 06:15:47;;;;;;;;;;;;;;;;;;5032256;28;19996;-47
2022/03/31 06:18:13;;;;;;;;;;;;;;;;;;5032454;28;19944;-47
2022/03/31 06:20:39;;;;;;;;;;;;;;;;;;5032230;28;19909;-47
2022/03/31 06:23:05;;;;;;;;;;;;;;;;;;5032092;28;19944;-48
2022/03/31 06:25:31;;;;;;;;;;;;;;;;;;5032277;28;19909;-48
2022/03/31 06:27:57;;;;;;;;;;;;;;;;;;5032059;28;20347;-48
2022/03/31 06:30:23;;;;;;;;;;;;;;;;;;5031974;28;19963;-48
2022/03/31 06:32:48;;;;;;;;;;;;;;;;;;5032225;28;19940;-46
2022/03/31 06:35:14;;;;;;;;;;;;;;;;;;5032154;28;19905;-47
2022/03/31 06:37:40;;;;;;;;;;;;;;;;;;5032118;28;19905;-47
2022/03/31 06:40:06;;;;;;;;;;;;;;;;;;5032364;28;19905;-48
2022/03/31 06:42:32;;;;;;;;;;;;;;;;;;5032010;28;19905;-51
2022/03/31 06:44:58;;;;;;;;;;;;;;;;;;5031993;28;19905;-47
2022/03/31 06:47:24;;;;;;;;;;;;;;;;;;5031898;28;19913;-47
2022/03/31 06:49:50;;;;;;;;;;;;;;;;;;5032406;28;20055;-48
2022/03/31 06:52:16;;;;;;;;;;;;;;;;;;5035925;28;20003;-47
2022/03/31 06:54:41;;;;;;;;;;;;;;;;;;5035461;28;19956;-48
2022/03/31 06:57:07;;;;;;;;;;;;;;;;;;5035477;28;19912;-48
2022/03/31 06:59:33;;;;;;;;;;;;;;;;;;5035349;28;19944;-47
2022/03/31 07:01:59;;;;;;;;;;;;;;;;;;5035338;28;19912;-47
2022/03/31 07:04:25;;;;;;;;;;;;;;;;;;5035280;28;19963;-47
2022/03/31 07:06:51;;;;;;;;;;;;;;;;;;5035290;28;19909;-47
2022/03/31 07:09:17;;;;;;;;;;;;;;;;;;5035335;28;19905;-47
2022/03/31 07:11:43;;;;;;;;;;;;;;;;;;5035039;28;19959;-49
2022/03/31 07:14:09;;;;;;;;;;;;;;;;;;5035222;28;20307;-47
2022/03/31 07:16:35;;;;;;;;;;;;;;;;;;5034909;28;19955;-47
2022/03/31 07:19:03;;;;;;;;;;;;;;;;;;5034929;28;19909;-47
2022/03/31 07:21:29;;;;;;;;;;;;;;;;;;5035049;28;19959;-48
2022/03/31 07:23:55;;;;;;;;;;;;;;;;;;5034897;28;19964;-47
2022/03/31 07:26:22;;;;;;;;;;;;;;;;;;5034962;28;19912;-48
2022/03/31 07:28:48;;;;;;;;;;;;;;;;;;5034901;28;20377;-46
2022/03/31 07:31:14;;;;;;;;;;;;;;;;;;5034918;28;19921;-47
2022/03/31 07:33:40;;;;;;;;;;;;;;;;;;5034768;28;19905;-48
2022/03/31 07:36:07;;;;;;;;;;;;;;;;;;5034816;28;19905;-47
2022/03/31 07:38:33;;;;;;;;;;;;;;;;;;5034579;28;19905;-48
2022/03/31 07:40:59;;;;;;;;;;;;;;;;;;5034536;28;19905;-47
2022/03/31 07:43:27;;;;;;;;;;;;;;;;;;5034987;28;20272;-48
2022/03/31 07:45:52;;;;;;;;;;;;;;;;;;5034586;28;20315;-46
2022/03/31 07:48:18;;;;;;;;;;;;;;;;;;5034636;28;19936;-48
2022/03/31 07:50:44;;;;;;;;;;;;;;;;;;5034716;28;19913;-47
2022/03/31 07:53:10;;;;;;;;;;;;;;;;;;5034731;28;19904;-46
2022/03/31 07:55:36;;;;;;;;;;;;;;;;;;5034399;28;19905;-46
2022/03/31 07:58:02;;;;;;;;;;;;;;;;;;5034267;28;20429;-46
2022/03/31 08:00:28;;;;;;;;;;;;;;;;;;5034533;28;20370;-46
2022/03/31 08:02:55;;;;;;;;;;;;;;;;;;5034014;28;19916;-46
2022/03/31 08:05:21;;;;;;;;;;;;;;;;;;5034247;28;19909;-46
2022/03/31 08:07:47;;;;;;;;;;;;;;;;;;5034173;28;19905;-46
2022/03/31 08:10:13;;;;;;;;;;;;;;;;;;5034353;28;19913;-46
2022/03/31 08:12:40;;;;;;;;;;;;;;;;;;5034386;28;20371;-45
2022/03/31 08:15:06;;;;;;;;;;;;;;;;;;5034025;28;19912;-46
2022/03/31 08:17:32;;;;;;;;;;;;;;;;;;5033983;28;20364;-47
2022/03/31 08:19:58;;;;;;;;;;;;;;;;;;5034217;28;20050;-46
2022/03/31 08:22:26;;;;;;;;;;;;;;;;;;5034100;28;19909;-46
2022/03/31 08:24:52;;;;;;;;;;;;;;;;;;5033862;28;19905;-60
2022/03/31 08:27:18;;;;;;;;;;;;;;;;;;5033818;28;19912;-60
2022/03/31 08:29:44;;;;;;;;;;;;;;;;;;5033701;28;20371;-60
2022/03/31 08:32:10;;;;;;;;;;;;;;;;;;5033676;28;19940;-60
2022/03/31 08:34:36;;;;;;;;;;;;;;;;;;5034048;28;20027;-60
2022/03/31 08:37:02;;;;;;;;;;;;;;;;;;5033610;28;20386;-60
2022/03/31 08:39:28;;;;;;;;;;;;;;;;;;5033624;28;19948;-60
2022/03/31 08:41:54;;;;;;;;;;;;;;;;;;5033543;28;19905;-60
2022/03/31 08:44:20;;;;;;;;;;;;;;;;;;5033631;28;19905;-60
2022/03/31 08:46:45;;;;;;;;;;;;;;;;;;5033473;28;19912;-60
2022/03/31 08:49:12;;;;;;;;;;;;;;;;;;5033378;28;20287;-60
2022/03/31 08:51:38;;;;;;;;;;;;;;;;;;5033387;28;19967;-59
2022/03/31 08:54:05;;;;;;;;;;;;;;;;;;5033668;28;20252;-60
2022/03/31 08:56:31;;;;;;;;;;;;;;;;;;5033368;28;19912;-60
2022/03/31 08:58:56;;;;;;;;;;;;;;;;;;5033257;28;19905;-60
2022/03/31 09:01:22;;;;;;;;;;;;;;;;;;5033293;28;19996;-60
2022/03/31 09:03:48;;;;;;;;;;;;;;;;;;5033086;28;19917;-60
2022/03/31 09:06:14;;;;;;;;;;;;;;;;;;5033665;28;19912;-60
2022/03/31 09:08:40;;;;;;;;;;;;;;;;;;5033394;28;19905;-59
2022/03/31 09:11:07;;;;;;;;;;;;;;;;;;5032927;28;19913;-59
2022/03/31 09:13:36;;;;;;;;;;;;;;;;;;5032654;28;19905;-59
2022/03/31 09:16:01;;;;;;;;;;;;;;;;;;5033259;28;19909;-59
2022/03/31 09:18:27;;;;;;;;;;;;;;;;;;5032933;28;19913;-59
2022/03/31 09:20:54;;;;;;;;;;;;;;;;;;5032873;28;19904;-59
2022/03/31 09:23:20;;;;;;;;;;;;;;;;;;5032901;28;19912;-59
2022/03/31 09:25:45;;;;;;;;;;;;;;;;;;5032895;28;19905;-60
2022/03/31 09:28:11;;;;;;;;;;;;;;;;;;5032836;28;19955;-59
2022/03/31 09:30:37;;;;;;;;;;;;;;;;;;5032630;28;20001;-59
2022/03/31 09:33:05;;;;;;;;;;;;;;;;;;5032748;28;19905;-60
2022/03/31 09:35:31;;;;;;;;;;;;;;;;;;5032689;28;19967;-60
2022/03/31 09:37:58;;;;;;;;;;;;;;;;;;5032772;28;19905;-59
2022/03/31 09:40:24;;;;;;;;;;;;;;;;;;5032643;28;19950;-59
2022/03/31 09:42:50;;;;;;;;;;;;;;;;;;5032617;28;20008;-59
2022/03/31 09:45:16;;;;;;;;;;;;;;;;;;5032654;28;19912;-59
2022/03/31 09:47:42;;;;;;;;;;;;;;;;;;5032687;28;19991;-60
2022/03/31 09:50:08;;;;;;;;;;;;;;;;;;5032498;28;19909;-59
2022/03/31 09:52:34;;;;;;;;;;;;;;;;;;5032591;28;20012;-60
2022/03/31 09:54:59;;;;;;;;;;;;;;;;;;5032604;28;19912;-59
2022/03/31 09:57:25;;;;;;;;;;;;;;;;;;5032589;28;20383;-59
2022/03/31 09:59:52;;;;;;;;;;;;;;;;;;5032509;28;19909;-59
2022/03/31 10:02:18;;;;;;;;;;;;;;;;;;5032364;28;19909;-60
2022/03/31 10:04:46;;;;;;;;;;;;;;;;;;5032435;28;19952;-59
2022/03/31 10:07:11;;;;;;;;;;;;;;;;;;5032648;28;20310;-60
2022/03/31 10:09:39;;;;;;;;;;;;;;;;;;5032496;28;20003;-60
2022/03/31 10:12:05;;;;;;;;;;;;;;;;;;5032433;28;20319;-59
2022/03/31 10:14:31;;;;;;;;;;;;;;;;;;5031148;28;19915;-59
2022/03/31 10:16:57;;;;;;;;;;;;;;;;;;5032345;28;19905;-59
2022/03/31 10:19:23;;;;;;;;;;;;;;;;;;5032610;28;19958;-59
2022/03/31 10:21:49;;;;;;;;;;;;;;;;;;5032689;28;20341;-59
2022/03/31 10:27:01;;;;;;;;;;;;;;;;;;5036221;28;19912;-59
2022/03/31 10:29:28;;;;;;;;;;;;;;;;;;5036093;28;20413;-59
2022/03/31 10:31:54;;;;;;;;;;;;;;;;;;5035925;28;19913;-59
2022/03/31 10:34:20;;;;;;;;;;;;;;;;;;5036053;28;20002;-59
2022/03/31 10:36:47;;;;;;;;;;;;;;;;;;5036276;28;19909;-59
2022/03/31 10:39:13;;;;;;;;;;;;;;;;;;5036153;28;19909;-59
2022/03/31 10:41:39;;;;;;;;;;;;;;;;;;5036043;28;19999;-59
2022/03/31 10:44:05;;;;;;;;;;;;;;;;;;5035749;28;19905;-59
2022/03/31 10:46:32;;;;;;;;;;;;;;;;;;5035685;28;20342;-59
2022/03/31 10:48:58;;;;;;;;;;;;;;;;;;5035634;28;19932;-59
2022/03/31 10:51:24;;;;;;;;;;;;;;;;;;5035517;28;19913;-59
2022/03/31 10:53:50;;;;;;;;;;;;;;;;;;5035582;28;19908;-59
2022/03/31 10:56:18;;;;;;;;;;;;;;;;;;5036046;28;19905;-59
2022/03/31 10:58:44;;;;;;;;;;;;;;;;;;5035757;28;19951;-60
2022/03/31 11:01:10;;;;;;;;;;;;;;;;;;5035450;28;19905;-59
2022/03/31 11:03:36;;;;;;;;;;;;;;;;;;5035183;28;19917;-60
2022/03/31 11:06:02;;;;;;;;;;;;;;;;;;5035364;28;19951;-60
2022/03/31 11:08:29;;;;;;;;;;;;;;;;;;5035342;28;19928;-59
2022/03/31 11:10:55;;;;;;;;;;;;;;;;;;5035582;28;20320;-59
2022/03/31 11:13:21;;;;;;;;;;;;;;;;;;5035294;28;20166;-60
2022/03/31 11:15:47;;;;;;;;;;;;;;;;;;5035226;28;19948;-59
2022/03/31 11:18:13;;;;;;;;;;;;;;;;;;5035270;28;19958;-60
2022/03/31 11:20:38;;;;;;;;;;;;;;;;;;5035038;28;19978;-59
2022/03/31 11:23:06;;;;;;;;;;;;;;;;;;5035342;28;19911;-59
2022/03/31 11:25:32;;;;;;;;;;;;;;;;;;5035018;28;19905;-59
2022/03/31 11:27:58;;;;;;;;;;;;;;;;;;5035017;28;19967;-59
2022/03/31 11:30:24;;;;;;;;;;;;;;;;;;5035152;28;19909;-59
2022/03/31 11:32:50;;;;;;;;;;;;;;;;;;5034763;28;19909;-59
2022/03/31 11:35:17;;;;;;;;;;;;;;;;;;5034638;28;19912;-59
2022/03/31 11:37:43;;;;;;;;;;;;;;;;;;5034529;28;20371;-59
2022/03/31 11:40:10;;;;;;;;;;;;;;;;;;5034725;28;19958;-59
2022/03/31 11:42:35;;;;;;;;;;;;;;;;;;5034699;28;19992;-59
2022/03/31 11:45:02;;;;;;;;;;;;;;;;;;5034628;28;20086;-59
2022/03/31 11:47:30;;;;;;;;;;;;;;;;;;5034802;28;20064;-59
2022/03/31 11:49:56;;;;;;;;;;;;;;;;;;5034715;28;19905;-59
2022/03/31 11:52:22;;;;;;;;;;;;;;;;;;5034500;28;20324;-59
2022/03/31 11:54:48;;;;;;;;;;;;;;;;;;5034298;28;19911;-59
2022/03/31 11:57:14;;;;;;;;;;;;;;;;;;5034396;28;19905;-59
2022/03/31 11:59:40;;;;;;;;;;;;;;;;;;5034624;28;19911;-59
2022/03/31 12:02:06;;;;;;;;;;;;;;;;;;5034013;28;19905;-59
2022/03/31 12:04:32;;;;;;;;;;;;;;;;;;5034576;28;19908;-59
2022/03/31 12:06:58;;;;;;;;;;;;;;;;;;5034216;28;20379;-59
2022/03/31 12:09:26;;;;;;;;;;;;;;;;;;5034374;28;19908;-59
2022/03/31 12:11:51;;;;;;;;;;;;;;;;;;5034352;28;19956;-58
2022/03/31 12:14:17;;;;;;;;;;;;;;;;;;5034057;28;19905;-58
2022/03/31 12:16:43;;;;;;;;;;;;;;;;;;5033942;28;19912;-60
2022/03/31 12:19:09;;;;;;;;;;;;;;;;;;5034256;28;19905;-60
2022/03/31 12:21:35;;;;;;;;;;;;;;;;;;5033981;28;20260;-59
2022/03/31 12:24:01;;;;;;;;;;;;;;;;;;5033917;28;19908;-58
2022/03/31 12:26:27;;;;;;;;;;;;;;;;;;5034157;28;20338;-60
2022/03/31 12:28:53;;;;;;;;;;;;;;;;;;5033772;28;20433;-60
2022/03/31 12:31:19;;;;;;;;;;;;;;;;;;5033948;28;19967;-59
2022/03/31 12:33:45;;;;;;;;;;;;;;;;;;5034009;28;19905;-59
2022/03/31 12:36:10;;;;;;;;;;;;;;;;;;5033649;28;19905;-59
2022/03/31 12:38:36;;;;;;;;;;;;;;;;;;5033559;28;19959;-59
2022/03/31 12:41:02;;;;;;;;;;;;;;;;;;5033853;28;20008;-59
2022/03/31 12:43:28;;;;;;;;;;;;;;;;;;5033532;28;20265;-60
2022/03/31 12:45:54;;;;;;;;;;;;;;;;;;5033454;28;19932;-60
2022/03/31 12:48:20;;;;;;;;;;;;;;;;;;5032677;28;19905;-59
2022/03/31 12:50:46;;;;;;;;;;;;;;;;;;5033559;28;19944;-59
2022/03/31 12:53:11;;;;;;;;;;;;;;;;;;5033236;28;19952;-60
2022/03/31 12:55:38;;;;;;;;;;;;;;;;;;5033310;28;19912;-59
2022/03/31 12:58:04;;;;;;;;;;;;;;;;;;5033499;28;20287;-59
2022/03/31 13:00:31;;;;;;;;;;;;;;;;;;5033608;28;19905;-59
2022/03/31 13:02:58;;;;;;;;;;;;;;;;;;5033004;28;19960;-59
2022/03/31 13:05:24;;;;;;;;;;;;;;;;;;5033749;28;19948;-59
2022/03/31 13:07:53;;;;;;;;;;;;;;;;;;5033086;28;20360;-59
2022/03/31 13:10:19;;;;;;;;;;;;;;;;;;5033241;28;19920;-59
2022/03/31 13:12:45;;;;;;;;;;;;;;;;;;5033054;28;19904;-59
2022/03/31 13:15:13;;;;;;;;;;;;;;;;;;5033326;28;19940;-59
2022/03/31 13:17:38;;;;;;;;;;;;;;;;;;5033080;28;19905;-60
2022/03/31 13:20:05;;;;;;;;;;;;;;;;;;5032963;28;19962;-59
2022/03/31 13:22:30;;;;;;;;;;;;;;;;;;5033000;28;19959;-59
2022/03/31 13:24:56;;;;;;;;;;;;;;;;;;5032840;28;19905;-59
2022/03/31 13:27:22;;;;;;;;;;;;;;;;;;5033122;28;19905;-60
2022/03/31 13:29:48;;;;;;;;;;;;;;;;;;5032751;28;20486;-59
2022/03/31 13:32:14;;;;;;;;;;;;;;;;;;5032665;28;19913;-60
2022/03/31 13:34:46;;;;;;;;;;;;;;;;;;5032729;28;19948;-59
2022/03/31 13:37:12;;;;;;;;;;;;;;;;;;5031507;28;20352;-59
2022/03/31 13:39:38;;;;;;;;;;;;;;;;;;5032904;28;19938;-59
2022/03/31 13:42:03;;;;;;;;;;;;;;;;;;5032637;28;20000;-60
2022/03/31 13:44:29;;;;;;;;;;;;;;;;;;5032650;28;19905;-59
2022/03/31 13:46:55;;;;;;;;;;;;;;;;;;5032536;28;19905;-60
2022/03/31 13:49:21;;;;;;;;;;;;;;;;;;5032615;28;19955;-59
2022/03/31 13:51:47;;;;;;;;;;;;;;;;;;5032406;28;20011;-59
2022/03/31 13:54:13;;;;;;;;;;;;;;;;;;5032655;28;20551;-59
2022/03/31 13:56:39;;;;;;;;;;;;;;;;;;5032653;28;20162;-47
2022/03/31 14:01:52;;;;;;;;;;;;;;;;;;5036580;28;19915;-46
2022/03/31 14:04:18;;;;;;;;;;;;;;;;;;5036785;28;19924;-48
2022/03/31 14:06:44;;;;;;;;;;;;;;;;;;5036522;28;19905;-47
2022/03/31 14:09:10;;;;;;;;;;;;;;;;;;5036396;28;20003;-47
2022/03/31 14:11:35;;;;;;;;;;;;;;;;;;5036282;28;20019;-48
2022/03/31 14:14:01;;;;;;;;;;;;;;;;;;5036336;28;19928;-46
2022/03/31 14:16:28;;;;;;;;;;;;;;;;;;5036516;28;20410;-46
2022/03/31 14:18:54;;;;;;;;;;;;;;;;;;5036339;28;19905;-46
2022/03/31 14:21:20;;;;;;;;;;;;;;;;;;5036158;28;19905;-46
2022/03/31 14:23:46;;;;;;;;;;;;;;;;;;5036444;28;19904;-45
2022/03/31 14:26:12;;;;;;;;;;;;;;;;;;5036059;28;20012;-47
2022/03/31 14:28:38;;;;;;;;;;;;;;;;;;5036285;28;19906;-45
2022/03/31 14:31:04;;;;;;;;;;;;;;;;;;5036198;28;20011;-47
2022/03/31 14:33:31;;;;;;;;;;;;;;;;;;5036376;28;19952;-59
2022/03/31 14:35:57;;;;;;;;;;;;;;;;;;5036078;28;19905;-59
2022/03/31 14:38:25;;;;;;;;;;;;;;;;;;5036165;28;20356;-60
2022/03/31 14:40:51;;;;;;;;;;;;;;;;;;5036198;28;20436;-61
2022/03/31 14:43:17;;;;;;;;;;;;;;;;;;5035883;28;20136;-61
2022/03/31 14:45:43;;;;;;;;;;;;;;;;;;5035713;28;19912;-61
2022/03/31 14:48:09;;;;;;;;;;;;;;;;;;5035995;28;19940;-61
2022/03/31 14:50:35;;;;;;;;;;;;;;;;;;5035634;28;19920;-61
2022/03/31 14:53:01;;;;;;;;;;;;;;;;;;5035609;28;19909;-61
2022/03/31 14:55:27;;;;;;;;;;;;;;;;;;5035521;28;19912;-61
2022/03/31 14:57:53;;;;;;;;;;;;;;;;;;5035856;28;19999;-61
2022/03/31 15:00:19;;;;;;;;;;;;;;;;;;5035508;28;20006;-61
2022/03/31 15:02:45;;;;;;;;;;;;;;;;;;5035205;28;19916;-61
2022/03/31 15:05:12;;;;;;;;;;;;;;;;;;5035478;28;19913;-61
2022/03/31 15:07:39;;;;;;;;;;;;;;;;;;5035781;28;19909;-61
2022/03/31 15:15:34;;;;;;;;;;;;;;;;;;5035110;28;19951;-61
2022/03/31 15:18:01;;;;;;;;;;;;;;;;;;5035330;28;20047;-61
2022/03/31 15:20:27;;;;;;;;;;;;;;;;;;5035371;28;19936;-61
2022/03/31 15:22:53;;;;;;;;;;;;;;;;;;5035202;28;19909;-61
2022/03/31 15:25:19;;;;;;;;;;;;;;;;;;5035060;28;20391;-61
2022/03/31 15:27:45;;;;;;;;;;;;;;;;;;5035080;28;19912;-61
2022/03/31 15:30:11;;;;;;;;;;;;;;;;;;5035005;28;19919;-61
2022/03/31 15:32:36;;;;;;;;;;;;;;;;;;5034871;28;19916;-61
2022/03/31 15:35:02;;;;;;;;;;;;;;;;;;5035099;28;19952;-61
2022/03/31 15:37:28;;;;;;;;;;;;;;;;;;5034764;28;19905;-61
2022/03/31 15:39:54;;;;;;;;;;;;;;;;;;5034619;28;19987;-60
2022/03/31 15:42:20;;;;;;;;;;;;;;;;;;5034470;28;19905;-61
2022/03/31 15:44:49;;;;;;;;;;;;;;;;;;5034513;28;19905;-61
2022/03/31 15:47:15;;;;;;;;;;;;;;;;;;5034662;28;20376;-61
2022/03/31 15:49:41;;;;;;;;;;;;;;;;;;5034590;28;19950;-60
2022/03/31 15:52:07;;;;;;;;;;;;;;;;;;5034447;28;19935;-61
2022/03/31 15:54:33;;;;;;;;;;;;;;;;;;5034733;28;19947;-60
2022/03/31 15:56:58;;;;;;;;;;;;;;;;;;5034660;28;19953;-61
2022/03/31 15:59:24;;;;;;;;;;;;;;;;;;5034689;28;20457;-61
2022/03/31 16:01:50;;;;;;;;;;;;;;;;;;5034201;28;20314;-60
2022/03/31 16:04:16;;;;;;;;;;;;;;;;;;5034381;28;19924;-59
2022/03/31 16:06:42;;;;;;;;;;;;;;;;;;5034233;28;19905;-59
2022/03/31 16:09:08;;;;;;;;;;;;;;;;;;5034043;28;20489;-60
2022/03/31 16:11:34;;;;;;;;;;;;;;;;;;5033888;28;19913;-59
2022/03/31 16:14:00;;;;;;;;;;;;;;;;;;5033941;28;19906;-59
2022/03/31 16:16:26;;;;;;;;;;;;;;;;;;5033919;28;20358;-59
2022/03/31 16:18:52;;;;;;;;;;;;;;;;;;5033843;28;19905;-60
2022/03/31 16:21:18;;;;;;;;;;;;;;;;;;5033851;28;19905;-60
2022/03/31 16:23:44;;;;;;;;;;;;;;;;;;5034218;28;19905;-46
2022/03/31 16:26:10;;;;;;;;;;;;;;;;;;5033868;28;19912;-47
2022/03/31 16:28:36;;;;;;;;;;;;;;;;;;5033630;28;20432;-46
2022/03/31 16:31:02;;;;;;;;;;;;;;;;;;5033950;28;19913;-46
2022/03/31 16:33:28;;;;;;;;;;;;;;;;;;5033996;28;20310;-46
2022/03/31 16:35:55;;;;;;;;;;;;;;;;;;5033878;28;19905;-46
2022/03/31 16:38:21;;;;;;;;;;;;;;;;;;5033611;28;20395;-47
2022/03/31 16:40:47;;;;;;;;;;;;;;;;;;5033591;28;20043;-46
2022/03/31 16:43:12;;;;;;;;;;;;;;;;;;5033854;28;20259;-47
2022/03/31 16:45:39;;;;;;;;;;;;;;;;;;5033509;28;20078;-47
2022/03/31 16:48:05;;;;;;;;;;;;;;;;;;5033695;28;19905;-46
2022/03/31 16:50:31;;;;;;;;;;;;;;;;;;5033392;28;19919;-47